createdAt,value
2022-09-18T00:10:30.000Z,7.3
2022-09-18T00:40:33.000Z,7.4
2022-09-18T01:10:35.000Z,8.4
2022-09-18T01:40:39.000Z,8.8
2022-09-18T02:10:41.000Z,8.5
2022-09-18T02:40:42.000Z,8.6
2022-09-18T03:10:48.000Z,8.6
2022-09-18T03:40:51.000Z,8.6
2022-09-18T04:10:52.000Z,8.8
2022-09-18T04:40:56.000Z,8.7
2022-09-18T05:10:59.000Z,8.7
2022-09-18T05:41:03.000Z,8.8
2022-09-18T06:11:06.000Z,9.0
2022-09-18T06:41:17.000Z,9.4
2022-09-18T07:11:20.411Z,10
2022-09-18T07:41:23.000Z,10.2
2022-09-18T08:11:24.000Z,10.4
2022-09-18T08:41:26.000Z,10.7
2022-09-18T09:11:27.000Z,11.1
2022-09-18T09:41:30.000Z,11.1
2022-09-18T10:11:34.000Z,11.2
2022-09-18T10:41:36.000Z,11.7
2022-09-18T11:11:39.000Z,12.1
2022-09-18T11:41:44.000Z,12.6
2022-09-18T12:11:47.000Z,12.4
2022-09-18T12:41:52.000Z,12.3
2022-09-18T13:11:55.000Z,13.4
2022-09-18T13:41:56.000Z,13.7
2022-09-18T14:11:58.000Z,13.8
2022-09-18T14:42:00.000Z,13.9
2022-09-18T15:12:09.000Z,13.9
2022-09-18T15:42:10.000Z,13.5
2022-09-18T16:12:11.000Z,13.0
2022-09-18T16:42:16.000Z,12.5
2022-09-18T17:12:18.000Z,11.7
2022-09-18T17:42:22.000Z,11.7
2022-09-18T18:12:26.000Z,12.2
2022-09-18T18:42:27.000Z,12.2
2022-09-18T19:12:32.000Z,11.7
2022-09-18T19:42:38.000Z,11.2
2022-09-18T20:12:47.000Z,10.7
2022-09-18T20:42:50.000Z,10.9
2022-09-18T21:12:54.000Z,10.8
2022-09-18T21:42:57.000Z,10.6
2022-09-18T22:12:58.000Z,11.0
2022-09-18T22:42:58.000Z,11.1
2022-09-18T23:13:03.000Z,10.7
2022-09-18T23:43:05.000Z,10.2
